createdAt,value
2022-08-17T00:02:26.960Z,98785.22
2022-08-17T00:04:55.200Z,98789.41
2022-08-17T00:07:22.905Z,98795.56
2022-08-17T00:09:49.702Z,98788.28
2022-08-17T00:12:51.263Z,98796.66
2022-08-17T00:15:05.337Z,98782.16
2022-08-17T00:17:32.228Z,98783.66
2022-08-17T00:20:00.347Z,98784.41
2022-08-17T00:22:34.061Z,98783.69
2022-08-17T00:25:06.226Z,98778.69
2022-08-17T00:27:33.159Z,98777.56
2022-08-17T00:30:00.076Z,98777.94
2022-08-17T00:33:15.572Z,98782.09
2022-08-17T00:35:18.389Z,98782.88
2022-08-17T00:37:45.343Z,98778.22
2022-08-17T00:40:14.393Z,98777.44
2022-08-17T00:42:42.800Z,98777.41
2022-08-17T00:45:17.510Z,98777.41
2022-08-17T00:47:44.411Z,98773.19
2022-08-17T00:50:15.333Z,98773.25
2022-08-17T00:52:56.313Z,98776.22
2022-08-17T00:55:27.663Z,98784.94
2022-08-17T00:57:58.753Z,98793.31
2022-08-17T01:00:30.032Z,98786.50
2022-08-17T01:03:05.141Z,98784.56
2022-08-17T01:05:34.373Z,98793.69
2022-08-17T01:08:02.285Z,98803.31
2022-08-17T01:11:00.582Z,98794.03
2022-08-17T01:13:40.685Z,98802.00
2022-08-17T01:16:17.303Z,98795.94
2022-08-17T01:18:48.317Z,98792.06
2022-08-17T01:21:36.774Z,98795.81
2022-08-17T01:24:04.523Z,98799.25
2022-08-17T01:26:32.305Z,98798.41
2022-08-17T01:29:01.239Z,98799.88
2022-08-17T01:31:32.178Z,98800.66
2022-08-17T01:34:02.416Z,98807.25
2022-08-17T01:36:29.328Z,98799.53
2022-08-17T01:38:56.287Z,98800.94
2022-08-17T01:41:24.452Z,98807.81
2022-08-17T01:43:55.751Z,98809.59
2022-08-17T01:46:31.041Z,98815.38
2022-08-17T01:48:59.480Z,98819.09
2022-08-17T01:51:31.197Z,98812.09
2022-08-17T01:54:05.453Z,98816.69
2022-08-17T01:56:34.329Z,98820.53
2022-08-17T01:59:05.364Z,98824.06
2022-08-17T02:01:34.875Z,98817.06
2022-08-17T02:04:03.280Z,98812.81
2022-08-17T02:06:45.275Z,98817.41
2022-08-17T02:09:22.357Z,98819.69
2022-08-17T02:11:54.030Z,98820.47
2022-08-17T02:14:22.462Z,98820.19
2022-08-17T02:16:49.546Z,98811.81
2022-08-17T02:19:17.863Z,98812.44
2022-08-17T02:21:48.222Z,98810.25
2022-08-17T02:24:58.010Z,98812.94
2022-08-17T02:27:07.677Z,98810.66
2022-08-17T02:29:34.734Z,98813.59
2022-08-17T02:32:01.624Z,98814.13
2022-08-17T02:34:29.086Z,98810.09
2022-08-17T02:36:56.556Z,98810.13
2022-08-17T02:39:23.514Z,98819.63
2022-08-17T02:41:50.535Z,98808.25
2022-08-17T02:44:35.427Z,98810.59
2022-08-17T02:47:04.627Z,98814.81
2022-08-17T02:49:31.566Z,98810.59
2022-08-17T02:51:59.026Z,98818.06
2022-08-17T02:54:39.693Z,98818.59
2022-08-17T02:57:09.947Z,98810.91
2022-08-17T02:59:43.223Z,98809.13
2022-08-17T03:02:15.622Z,98809.56
2022-08-17T03:04:42.528Z,98811.69
2022-08-17T03:07:09.550Z,98814.91
2022-08-17T03:09:36.333Z,98816.06
2022-08-17T03:12:11.290Z,98813.69
2022-08-17T03:14:41.999Z,98815.03
2022-08-17T03:17:15.887Z,98811.91
2022-08-17T03:19:44.567Z,98814.22
2022-08-17T03:22:37.395Z,98814.91
2022-08-17T03:24:58.492Z,98818.19
2022-08-17T03:27:25.369Z,98819.94
2022-08-17T03:29:52.235Z,98820.88
2022-08-17T03:32:19.041Z,98813.09
2022-08-17T03:34:45.841Z,98817.50
2022-08-17T03:37:12.683Z,98814.38
2022-08-17T03:39:39.780Z,98817.59
2022-08-17T03:42:32.015Z,98817.25
2022-08-17T03:45:01.069Z,98821.63
2022-08-17T03:47:28.834Z,98826.56
2022-08-17T03:49:55.744Z,98832.94
2022-08-17T03:52:22.648Z,98827.81
2022-08-17T03:54:49.458Z,98822.84
2022-08-17T03:57:16.358Z,98837.84
2022-08-17T03:59:43.243Z,98825.09
2022-08-17T04:02:17.825Z,98829.56
2022-08-17T04:04:44.668Z,98829.03
2022-08-17T04:07:12.019Z,98829.72
2022-08-17T04:09:39.412Z,98833.47
2022-08-17T04:12:06.604Z,98830.38
2022-08-17T04:14:34.198Z,98834.91
2022-08-17T04:17:00.991Z,98828.13
2022-08-17T04:19:27.881Z,98834.66
2022-08-17T04:21:54.702Z,98837.69
2022-08-17T04:24:21.561Z,98832.66
2022-08-17T04:26:54.263Z,98838.47
2022-08-17T04:29:21.879Z,98838.13
2022-08-17T04:31:49.351Z,98836.34
2022-08-17T04:34:16.294Z,98839.66
2022-08-17T04:36:50.379Z,98838.50
2022-08-17T04:39:17.504Z,98844.25
2022-08-17T04:41:44.283Z,98843.31
2022-08-17T04:44:12.044Z,98847.16
2022-08-17T04:46:38.923Z,98836.84
2022-08-17T04:49:09.185Z,98855.53
2022-08-17T04:51:39.507Z,98852.75
2022-08-17T04:54:18.231Z,98855.41
2022-08-17T04:56:45.754Z,98856.97
2022-08-17T04:59:18.307Z,98855.50
2022-08-17T05:01:48.587Z,98852.06
2022-08-17T05:04:33.910Z,98852.94
2022-08-17T05:07:02.994Z,98853.50
2022-08-17T05:09:29.806Z,98855.56
2022-08-17T05:12:01.287Z,98859.94
2022-08-17T05:14:33.031Z,98858.50
2022-08-17T05:17:01.729Z,98864.28
2022-08-17T05:19:33.988Z,98860.91
2022-08-17T05:22:07.357Z,98862.53
2022-08-17T05:24:39.852Z,98864.09
2022-08-17T05:27:10.991Z,98859.56
2022-08-17T05:29:44.638Z,98860.38
2022-08-17T05:32:38.419Z,98862.31
2022-08-17T05:34:59.730Z,98858.66
2022-08-17T05:37:26.672Z,98864.50
2022-08-17T05:39:54.094Z,98863.44
2022-08-17T05:42:21.035Z,98862.72
2022-08-17T05:44:47.911Z,98860.47
2022-08-17T05:47:14.791Z,98864.69
2022-08-17T05:49:41.663Z,98864.72
2022-08-17T05:52:20.046Z,98851.75
2022-08-17T05:55:12.913Z,98857.88
2022-08-17T05:57:53.718Z,98849.91
2022-08-17T06:00:30.390Z,98856.81
2022-08-17T06:03:28.624Z,98852.59
2022-08-17T06:06:10.716Z,98850.69
2022-08-17T06:08:40.227Z,98849.91
2022-08-17T06:11:07.208Z,98842.25
2022-08-17T06:13:40.599Z,98852.94
2022-08-17T06:16:31.079Z,98851.03
2022-08-17T06:19:19.899Z,98857.84
2022-08-17T06:21:51.198Z,98852.44
2022-08-17T06:24:23.932Z,98855.06
2022-08-17T06:26:53.970Z,98858.84
2022-08-17T06:29:38.801Z,98859.19
2022-08-17T06:32:09.461Z,98861.06
2022-08-17T06:34:39.827Z,98860.66
2022-08-17T06:37:16.062Z,98861.28
2022-08-17T06:39:48.702Z,98863.50
2022-08-17T06:43:00.850Z,98869.53
2022-08-17T06:45:29.953Z,98867.50
2022-08-17T06:48:06.085Z,98866.22
2022-08-17T06:50:58.147Z,98865.31
2022-08-17T06:53:47.745Z,98862.91
2022-08-17T06:56:53.071Z,98871.94
2022-08-17T06:59:19.765Z,98867.28
2022-08-17T07:01:50.005Z,98856.78
2022-08-17T07:04:25.329Z,98865.44
2022-08-17T07:07:11.669Z,98860.72
2022-08-17T07:09:39.010Z,98860.84
2022-08-17T07:12:14.680Z,98865.63
2022-08-17T07:15:11.211Z,98859.97
2022-08-17T07:17:47.463Z,98861.56
2022-08-17T07:20:19.143Z,98857.19
2022-08-17T07:23:00.014Z,98859.81
2022-08-17T07:25:28.357Z,98864.38
2022-08-17T07:27:57.842Z,98856.06
2022-08-17T07:30:28.084Z,98858.16
2022-08-17T07:33:12.584Z,98858.41
2022-08-17T07:35:45.069Z,98866.16
2022-08-17T07:38:25.725Z,98863.69
2022-08-17T07:40:56.226Z,98868.94
2022-08-17T07:43:34.310Z,98872.66
2022-08-17T07:46:20.042Z,98864.44
2022-08-17T07:48:54.469Z,98862.19
2022-08-17T07:51:31.741Z,98857.09
2022-08-17T07:54:14.179Z,98858.16
2022-08-17T07:56:49.226Z,98863.31
2022-08-17T07:59:23.751Z,98855.75
2022-08-17T08:01:57.663Z,98861.50
2022-08-17T08:04:59.552Z,98860.88
2022-08-17T08:07:35.983Z,98861.47
2022-08-17T08:10:05.460Z,98862.03
2022-08-17T08:12:35.165Z,98856.72
2022-08-17T08:15:17.552Z,98857.31
2022-08-17T08:17:55.399Z,98855.84
2022-08-17T08:20:52.265Z,98855.69
2022-08-17T08:23:37.098Z,98854.13
2022-08-17T08:26:18.545Z,98847.78
2022-08-17T08:29:31.681Z,98851.13
2022-08-17T08:32:30.805Z,98849.34
2022-08-17T08:35:22.448Z,98851.25
2022-08-17T08:38:07.851Z,98850.44
2022-08-17T08:40:34.644Z,98856.94
2022-08-17T08:43:32.405Z,98851.41
2022-08-17T08:46:08.952Z,98848.06
2022-08-17T08:49:10.286Z,98842.31
2022-08-17T08:52:10.214Z,98857.06
2022-08-17T08:54:56.336Z,98859.56
2022-08-17T08:57:38.886Z,98858.16
2022-08-17T09:00:08.609Z,98856.13
2022-08-17T09:02:59.980Z,98852.97
2022-08-17T09:05:42.438Z,98851.69
2022-08-17T09:08:27.834Z,98853.38
2022-08-17T09:11:05.072Z,98854.25
2022-08-17T09:13:46.850Z,98851.00
2022-08-17T09:16:29.706Z,98847.75
2022-08-17T09:19:05.739Z,98855.41
2022-08-17T09:21:51.621Z,98854.75
2022-08-17T09:24:56.761Z,98856.34
2022-08-17T09:27:57.242Z,98856.69
2022-08-17T09:30:32.694Z,98848.88
2022-08-17T09:33:04.830Z,98863.06
2022-08-17T09:35:38.065Z,98854.47
2022-08-17T09:38:32.575Z,98845.59
2022-08-17T09:41:25.134Z,98846.09
2022-08-17T09:44:23.690Z,98841.56
2022-08-17T09:46:52.366Z,98836.75
2022-08-17T09:49:25.452Z,98840.63
2022-08-17T09:51:58.618Z,98837.47
2022-08-17T09:54:40.824Z,98834.44
2022-08-17T09:57:28.717Z,98835.72
2022-08-17T10:00:21.732Z,98836.44
2022-08-17T10:02:58.741Z,98828.78
2022-08-17T10:05:28.192Z,98828.78
2022-08-17T10:08:07.382Z,98820.25
2022-08-17T10:10:56.736Z,98822.97
2022-08-17T10:14:38.109Z,98829.63
2022-08-17T10:17:30.374Z,98830.38
2022-08-17T10:20:00.431Z,98824.53
2022-08-17T10:22:37.875Z,98814.56
2022-08-17T10:25:23.459Z,98817.13
2022-08-17T10:27:57.657Z,98812.91
2022-08-17T10:30:28.766Z,98810.50
2022-08-17T10:32:59.098Z,98816.44
2022-08-17T10:36:06.395Z,98806.22
2022-08-17T10:38:43.140Z,98808.91
2022-08-17T10:41:15.729Z,98810.44
2022-08-17T10:44:39.852Z,98804.09
2022-08-17T10:47:13.627Z,98799.09
2022-08-17T10:49:48.712Z,98804.56
2022-08-17T10:52:41.653Z,98801.28
2022-08-17T10:55:18.184Z,98793.00
2022-08-17T10:57:49.067Z,98788.63
2022-08-17T11:00:42.358Z,98786.69
2022-08-17T11:03:20.710Z,98787.16
2022-08-17T11:06:01.195Z,98796.50
2022-08-17T11:08:37.030Z,98789.56
2022-08-17T11:11:15.800Z,98787.94
2022-08-17T11:13:51.250Z,98787.50
2022-08-17T11:16:30.427Z,98783.09
2022-08-17T11:19:28.241Z,98785.84
2022-08-17T11:22:19.073Z,98788.00
2022-08-17T11:24:49.694Z,98776.25
2022-08-17T11:27:27.461Z,98777.00
2022-08-17T11:30:01.839Z,98774.63
2022-08-17T11:32:48.673Z,98775.41
2022-08-17T11:35:22.587Z,98776.47
2022-08-17T11:38:20.365Z,98764.69
2022-08-17T11:41:08.211Z,98769.38
2022-08-17T11:43:42.647Z,98767.41
2022-08-17T11:46:39.350Z,98757.59
2022-08-17T11:49:18.962Z,98752.91
2022-08-17T11:51:55.013Z,98753.50
2022-08-17T11:54:33.642Z,98749.31
2022-08-17T11:57:24.121Z,98749.19
2022-08-17T11:59:59.184Z,98757.78
2022-08-17T12:02:25.921Z,98753.56
2022-08-17T12:05:17.006Z,98747.81
2022-08-17T12:07:52.165Z,98737.25
2022-08-17T12:10:23.657Z,98737.34
2022-08-17T12:12:53.289Z,98733.53
2022-08-17T12:15:28.902Z,98725.50
2022-08-17T12:17:56.858Z,98735.22
2022-08-17T12:20:28.985Z,98729.34
2022-08-17T12:23:09.834Z,98724.31
2022-08-17T12:25:47.196Z,98719.81
2022-08-17T12:28:27.108Z,98724.81
2022-08-17T12:30:57.057Z,98728.41
2022-08-17T12:33:28.372Z,98721.31
2022-08-17T12:36:03.349Z,98709.69
2022-08-17T12:38:33.675Z,98706.22
2022-08-17T12:41:04.581Z,98710.44
2022-08-17T12:43:31.379Z,98703.31
2022-08-17T12:46:00.794Z,98701.97
2022-08-17T12:48:37.457Z,98699.69
2022-08-17T12:51:06.561Z,98705.44
2022-08-17T12:53:34.099Z,98711.22
2022-08-17T12:56:06.992Z,98717.41
2022-08-17T12:58:49.634Z,98707.09
2022-08-17T13:01:17.623Z,98708.88
2022-08-17T13:03:51.120Z,98708.75
2022-08-17T13:06:35.599Z,98709.69
2022-08-17T13:09:35.869Z,98708.59
2022-08-17T13:12:08.104Z,98706.78
2022-08-17T13:14:35.196Z,98699.84
2022-08-17T13:17:05.421Z,98693.34
2022-08-17T13:19:40.688Z,98692.13
2022-08-17T13:22:12.376Z,98688.00
2022-08-17T13:24:53.950Z,98693.63
2022-08-17T13:27:23.453Z,98694.41
2022-08-17T13:29:53.980Z,98691.56
2022-08-17T13:32:34.140Z,98689.13
2022-08-17T13:35:14.172Z,98682.91
2022-08-17T13:37:58.504Z,98676.41
2022-08-17T13:40:30.619Z,98684.25
2022-08-17T13:42:58.759Z,98669.84
2022-08-17T13:45:35.222Z,98674.63
2022-08-17T13:48:13.573Z,98674.19
2022-08-17T13:50:47.385Z,98670.34
2022-08-17T13:53:25.069Z,98671.56
2022-08-17T13:55:56.223Z,98667.34
2022-08-17T13:58:31.028Z,98671.16
2022-08-17T14:00:58.800Z,98666.16
2022-08-17T14:03:25.637Z,98664.47
2022-08-17T14:05:53.302Z,98666.16
2022-08-17T14:08:20.749Z,98668.41
2022-08-17T14:10:58.317Z,98669.00
2022-08-17T14:13:25.306Z,98672.38
2022-08-17T14:15:55.985Z,98674.16
2022-08-17T14:18:35.444Z,98671.44
2022-08-17T14:21:10.972Z,98668.22
2022-08-17T14:23:38.337Z,98675.16
2022-08-17T14:26:05.400Z,98668.19
2022-08-17T14:28:32.242Z,98664.53
2022-08-17T14:31:00.949Z,98663.53
2022-08-17T14:33:30.777Z,98663.69
2022-08-17T14:35:57.671Z,98663.69
2022-08-17T14:38:24.630Z,98659.28
2022-08-17T14:40:51.898Z,98664.44
2022-08-17T14:43:18.916Z,98655.22
2022-08-17T14:45:45.721Z,98651.75
2022-08-17T14:48:12.652Z,98662.63
2022-08-17T14:50:42.533Z,98650.06
2022-08-17T14:53:11.804Z,98662.63
2022-08-17T14:55:38.551Z,98667.34
2022-08-17T14:58:05.430Z,98667.34
2022-08-17T15:00:33.063Z,98667.66
2022-08-17T15:03:01.714Z,98665.69
2022-08-17T15:05:32.852Z,98665.69
2022-08-17T15:08:01.260Z,98665.28
2022-08-17T15:10:28.286Z,98670.22
2022-08-17T15:12:55.516Z,98663.91
2022-08-17T15:15:23.158Z,98661.22
2022-08-17T15:17:49.936Z,98664.41
2022-08-17T15:20:21.279Z,98667.59
2022-08-17T15:22:49.564Z,98666.38
2022-08-17T15:25:18.950Z,98673.03
2022-08-17T15:27:45.831Z,98666.84
2022-08-17T15:30:13.068Z,98667.13
2022-08-17T15:32:45.633Z,98670.16
2022-08-17T15:35:19.592Z,98666.38
2022-08-17T15:37:54.764Z,98666.84
2022-08-17T15:40:21.601Z,98660.00
2022-08-17T15:42:48.488Z,98663.81
2022-08-17T15:45:15.274Z,98668.38
2022-08-17T15:47:42.183Z,98669.25
2022-08-17T15:50:09.743Z,98672.91
2022-08-17T15:52:36.616Z,98669.41
2022-08-17T15:55:04.834Z,98673.38
2022-08-17T15:57:31.899Z,98673.66
2022-08-17T15:59:59.202Z,98668.63
2022-08-17T16:03:14.923Z,98662.72
2022-08-17T16:05:24.129Z,98668.75
2022-08-17T16:07:52.730Z,98662.25
2022-08-17T16:10:20.011Z,98665.16
2022-08-17T16:12:49.767Z,98656.06
2022-08-17T16:15:18.039Z,98662.84
2022-08-17T16:17:45.032Z,98668.75
2022-08-17T16:20:19.510Z,98671.31
2022-08-17T16:22:50.206Z,98660.44
2022-08-17T16:25:22.471Z,98669.66
2022-08-17T16:27:51.257Z,98662.63
2022-08-17T16:30:18.296Z,98664.13
2022-08-17T16:32:46.491Z,98661.81
2022-08-17T16:35:14.494Z,98663.63
2022-08-17T16:37:44.600Z,98660.75
2022-08-17T16:40:13.741Z,98664.28
2022-08-17T16:42:41.938Z,98670.81
2022-08-17T16:45:09.262Z,98667.03
2022-08-17T16:47:37.219Z,98665.72
2022-08-17T16:50:06.698Z,98666.38
2022-08-17T16:52:33.928Z,98666.72
2022-08-17T16:55:03.610Z,98667.19
2022-08-17T16:57:30.815Z,98673.84
2022-08-17T16:59:58.481Z,98674.16
2022-08-17T17:02:41.430Z,98685.06
2022-08-17T17:05:16.711Z,98676.94
2022-08-17T17:07:56.281Z,98679.81
2022-08-17T17:10:52.832Z,98672.56
2022-08-17T17:13:50.349Z,98678.94
2022-08-17T17:16:29.119Z,98676.66
2022-08-17T17:19:07.996Z,98678.00
2022-08-17T17:21:49.856Z,98679.50
2022-08-17T17:24:57.012Z,98685.09
2022-08-17T17:27:31.206Z,98677.53
2022-08-17T17:30:10.248Z,98674.34
2022-08-17T17:32:50.817Z,98677.19
2022-08-17T17:35:24.319Z,98682.91
2022-08-17T17:37:54.057Z,98679.88
2022-08-17T17:40:31.748Z,98680.00
2022-08-17T17:43:14.560Z,98682.19
2022-08-17T17:46:21.899Z,98683.63
2022-08-17T17:48:48.981Z,98683.75
2022-08-17T17:52:09.555Z,98684.31
2022-08-17T17:54:34.175Z,98687.69
2022-08-17T17:57:19.632Z,98681.91
2022-08-17T17:59:53.452Z,98684.88
2022-08-17T18:02:38.523Z,98684.81
2022-08-17T18:05:31.545Z,98687.75
2022-08-17T18:08:11.114Z,98691.47
2022-08-17T18:10:41.039Z,98698.66
2022-08-17T18:13:34.137Z,98699.16
2022-08-17T18:16:03.719Z,98706.25
2022-08-17T18:18:32.485Z,98707.75
2022-08-17T18:21:02.497Z,98709.09
2022-08-17T18:23:29.381Z,98709.09
2022-08-17T18:25:57.165Z,98700.44
2022-08-17T18:28:27.954Z,98709.09
2022-08-17T18:31:07.187Z,98707.91
2022-08-17T18:33:38.121Z,98701.63
2022-08-17T18:36:05.730Z,98705.16
2022-08-17T18:38:33.691Z,98702.97
2022-08-17T18:41:23.123Z,98713.94
2022-08-17T18:44:06.098Z,98719.75
2022-08-17T18:46:35.817Z,98716.28
2022-08-17T18:49:24.973Z,98722.00
2022-08-17T18:52:09.676Z,98719.38
2022-08-17T18:54:36.988Z,98720.56
2022-08-17T18:57:06.648Z,98715.31
2022-08-17T18:59:44.371Z,98727.75
2022-08-17T19:02:20.572Z,98725.88
2022-08-17T19:05:03.237Z,98722.91
2022-08-17T19:07:37.813Z,98723.75
2022-08-17T19:10:22.910Z,98721.81
2022-08-17T19:13:03.363Z,98735.28
2022-08-17T19:16:14.069Z,98737.91
2022-08-17T19:18:51.104Z,98730.50
2022-08-17T19:21:20.743Z,98727.78
2022-08-17T19:24:05.192Z,98737.56
2022-08-17T19:26:51.241Z,98733.53
2022-08-17T19:29:34.254Z,98735.34
2022-08-17T19:32:02.154Z,98738.22
2022-08-17T19:34:35.791Z,98736.63
2022-08-17T19:37:14.224Z,98740.09
2022-08-17T19:39:59.078Z,98733.06
2022-08-17T19:42:43.943Z,98730.94
2022-08-17T19:45:22.850Z,98728.47
2022-08-17T19:48:17.497Z,98714.31
2022-08-17T19:50:51.057Z,98704.03
2022-08-17T19:53:41.745Z,98709.69
2022-08-17T19:56:44.486Z,98714.13
2022-08-17T19:59:29.039Z,98711.19
2022-08-17T20:02:19.377Z,98724.50
2022-08-17T20:04:49.241Z,98737.16
2022-08-17T20:07:24.570Z,98723.16
2022-08-17T20:10:07.533Z,98726.44
2022-08-17T20:12:37.142Z,98721.91
2022-08-17T20:15:11.994Z,98728.00
2022-08-17T20:17:41.610Z,98737.03
2022-08-17T20:20:33.107Z,98732.44
2022-08-17T20:23:09.862Z,98725.50
2022-08-17T20:25:47.482Z,98735.47
2022-08-17T20:28:24.484Z,98727.47
2022-08-17T20:30:52.477Z,98734.31
2022-08-17T20:33:37.418Z,98734.59
2022-08-17T20:36:19.495Z,98731.88
2022-08-17T20:38:57.058Z,98730.25
2022-08-17T20:41:27.253Z,98736.66
2022-08-17T20:43:56.860Z,98732.06
2022-08-17T20:46:37.380Z,98730.16
2022-08-17T20:49:22.689Z,98729.59
2022-08-17T20:52:01.590Z,98734.25
2022-08-17T20:54:54.230Z,98731.09
2022-08-17T20:57:33.342Z,98741.81
2022-08-17T21:00:42.211Z,98748.41
2022-08-17T21:03:21.004Z,98761.50
2022-08-17T21:06:00.308Z,98769.13
2022-08-17T21:08:31.209Z,98779.53
2022-08-17T21:10:59.613Z,98786.47
2022-08-17T21:13:55.773Z,98791.56
2022-08-17T21:16:39.626Z,98786.59
2022-08-17T21:19:18.695Z,98787.06
2022-08-17T21:22:22.972Z,98788.34
2022-08-17T21:25:12.716Z,98794.63
2022-08-17T21:28:03.762Z,98804.41
2022-08-17T21:30:30.509Z,98796.81
2022-08-17T21:33:17.349Z,98811.44
2022-08-17T21:35:51.782Z,98806.34
2022-08-17T21:38:33.201Z,98798.38
2022-08-17T21:41:00.020Z,98795.66
2022-08-17T21:43:34.029Z,98796.41
2022-08-17T21:46:08.067Z,98797.59
2022-08-17T21:48:48.201Z,98795.25
2022-08-17T21:51:20.518Z,98794.16
2022-08-17T21:53:55.002Z,98791.94
2022-08-17T21:56:38.803Z,98793.91
2022-08-17T21:59:16.096Z,98780.31
2022-08-17T22:01:43.958Z,98773.50
2022-08-17T22:04:27.170Z,98774.03
2022-08-17T22:06:57.546Z,98774.44
2022-08-17T22:09:34.120Z,98792.09
2022-08-17T22:12:17.637Z,98794.31
2022-08-17T22:14:56.882Z,98806.97
2022-08-17T22:17:32.661Z,98791.41
2022-08-17T22:20:10.492Z,98794.78
2022-08-17T22:22:41.277Z,98792.31
2022-08-17T22:25:19.952Z,98787.69
2022-08-17T22:28:08.380Z,98789.38
2022-08-17T22:30:36.801Z,98786.91
2022-08-17T22:33:28.501Z,98783.78
2022-08-17T22:36:11.854Z,98788.72
2022-08-17T22:38:40.626Z,98774.69
2022-08-17T22:41:13.655Z,98769.16
2022-08-17T22:43:44.685Z,98762.00
2022-08-17T22:46:12.902Z,98776.66
2022-08-17T22:48:50.533Z,98781.31
2022-08-17T22:51:23.315Z,98781.72
2022-08-17T22:53:53.924Z,98772.19
2022-08-17T22:56:24.887Z,98765.03
2022-08-17T22:58:59.154Z,98762.03
2022-08-17T23:01:32.780Z,98751.09
2022-08-17T23:04:00.978Z,98740.38
2022-08-17T23:06:28.808Z,98748.13
2022-08-17T23:08:55.878Z,98755.22
2022-08-17T23:11:45.931Z,98757.59
2022-08-17T23:14:13.534Z,98739.25
2022-08-17T23:16:40.764Z,98736.63
2022-08-17T23:19:07.481Z,98735.47
2022-08-17T23:21:37.146Z,98737.81
2022-08-17T23:24:06.402Z,98735.16
2022-08-17T23:26:35.921Z,98734.31
2022-08-17T23:29:02.653Z,98735.59
2022-08-17T23:31:29.495Z,98734.06
2022-08-17T23:33:56.274Z,98732.75
2022-08-17T23:36:23.082Z,98739.78
2022-08-17T23:38:49.853Z,98735.19
2022-08-17T23:41:20.434Z,98727.34
2022-08-17T23:43:54.602Z,98729.53
2022-08-17T23:46:22.305Z,98734.00
2022-08-17T23:48:49.114Z,98734.41
2022-08-17T23:51:19.358Z,98730.41
2022-08-17T23:53:51.393Z,98721.75
2022-08-17T23:56:18.246Z,98708.31
2022-08-17T23:58:45.077Z,98714.13
